Time;durP1;ratioP1;P1;durP2;ratioP2;P2;SDS_P1;SDS_P2;PMS_P1;PMS_P2;Temp;Humidity;BMP_temperature;BMP_pressure;BME280_temperature;BME280_humidity;BME280_pressure;Samples;Min_cycle;Max_cycle;Signal;HPM_P1;HPM_P2
2023/06/18 00:00:07;;;;;;;11.50;8.60;;;;;;;;;;5000319;28;20416;-49
2023/06/18 00:02:35;;;;;;;8.13;7.43;;;;;;;;;;4995891;28;20437;-49
2023/06/18 00:05:01;;;;;;;8.17;7.37;;;;;;;;;;5001226;28;20428;-50
2023/06/18 00:07:27;;;;;;;8.00;7.30;;;;;;;;;;5001504;28;20429;-50
2023/06/18 00:09:53;;;;;;;9.23;7.57;;;;;;;;;;5009563;28;20475;-49
2023/06/18 00:12:19;;;;;;;9.17;7.33;;;;;;;;;;5001433;28;20416;-51
2023/06/18 00:14:45;;;;;;;9.97;7.37;;;;;;;;;;5003425;28;20478;-50
2023/06/18 00:17:11;;;;;;;8.50;7.57;;;;;;;;;;4999044;28;20435;-49
2023/06/18 00:19:38;;;;;;;10.00;7.87;;;;;;;;;;4997248;28;20503;-50
2023/06/18 00:22:06;;;;;;;10.07;7.80;;;;;;;;;;5003862;28;20409;-49
2023/06/18 00:24:32;;;;;;;9.63;8.37;;;;;;;;;;5002768;28;20444;-50
2023/06/18 00:27:01;;;;;;;11.83;7.83;;;;;;;;;;5003594;28;21025;-49
2023/06/18 00:29:29;;;;;;;8.87;7.67;;;;;;;;;;5001829;28;20405;-50
2023/06/18 00:31:55;;;;;;;7.77;6.97;;;;;;;;;;5003490;28;20417;-49
2023/06/18 00:34:32;;;;;;;16.33;9.33;;;;;;;;;;4998620;28;20445;-48
2023/06/18 00:36:59;;;;;;;9.07;6.80;;;;;;;;;;5001877;28;20498;-49
2023/06/18 00:39:25;;;;;;;9.00;7.60;;;;;;;;;;5004506;28;20423;-51
2023/06/18 00:41:51;;;;;;;9.57;8.50;;;;;;;;;;5000343;28;20523;-51
2023/06/18 00:44:21;;;;;;;12.93;7.90;;;;;;;;;;5001584;28;20807;-49
2023/06/18 00:46:48;;;;;;;9.70;8.20;;;;;;;;;;5001718;28;20469;-49
2023/06/18 00:49:18;;;;;;;9.80;8.17;;;;;;;;;;5000689;28;20416;-49
2023/06/18 00:51:46;;;;;;;11.70;8.83;;;;;;;;;;5001551;28;20404;-49
2023/06/18 00:54:13;;;;;;;13.60;8.90;;;;;;;;;;5010094;28;21029;-49
2023/06/18 00:56:50;;;;;;;10.83;8.33;;;;;;;;;;5003923;28;20455;-51
2023/06/18 00:59:22;;;;;;;9.33;8.33;;;;;;;;;;5000130;28;20506;-50
2023/06/18 01:01:51;;;;;;;12.67;8.30;;;;;;;;;;4996424;28;20947;-49
2023/06/18 01:04:18;;;;;;;10.33;8.30;;;;;;;;;;5001132;28;20462;-51
2023/06/18 01:06:51;;;;;;;12.50;8.27;;;;;;;;;;5001182;28;20426;-48
2023/06/18 01:09:21;;;;;;;8.67;7.67;;;;;;;;;;5006902;28;20471;-48
2023/06/18 01:11:47;;;;;;;9.33;7.40;;;;;;;;;;5000476;28;20955;-48
2023/06/18 01:14:14;;;;;;;9.47;8.47;;;;;;;;;;5002031;28;20452;-48
2023/06/18 01:16:46;;;;;;;8.83;7.83;;;;;;;;;;5001485;28;20382;-51
2023/06/18 01:19:21;;;;;;;11.93;7.80;;;;;;;;;;5000386;28;20928;-51
2023/06/18 01:21:49;;;;;;;8.23;7.33;;;;;;;;;;5006524;28;20411;-50
2023/06/18 01:24:19;;;;;;;14.60;9.80;;;;;;;;;;5001497;28;20432;-48
2023/06/18 01:26:45;;;;;;;10.03;8.13;;;;;;;;;;4998482;28;20422;-48
2023/06/18 01:29:12;;;;;;;12.93;9.00;;;;;;;;;;5000533;28;20437;-50
2023/06/18 01:31:39;;;;;;;12.10;8.47;;;;;;;;;;5000342;28;20459;-51
2023/06/18 01:34:05;;;;;;;9.07;7.57;;;;;;;;;;4998381;28;20502;-51
2023/06/18 01:36:39;;;;;;;13.70;8.50;;;;;;;;;;5002952;28;20525;-48
2023/06/18 01:39:15;;;;;;;10.33;8.30;;;;;;;;;;5000278;28;20478;-52
2023/06/18 01:41:44;;;;;;;12.47;8.80;;;;;;;;;;5003348;28;20542;-50
2023/06/18 01:44:12;;;;;;;9.30;8.37;;;;;;;;;;4997806;28;20434;-49
2023/06/18 01:46:40;;;;;;;11.33;9.10;;;;;;;;;;5003486;28;20421;-48
2023/06/18 01:49:07;;;;;;;10.40;8.73;;;;;;;;;;4994267;28;20411;-49
2023/06/18 01:51:35;;;;;;;11.03;8.57;;;;;;;;;;5001057;28;20395;-48
2023/06/18 01:54:05;;;;;;;11.80;9.13;;;;;;;;;;5002992;28;20419;-50
2023/06/18 01:56:32;;;;;;;11.73;9.30;;;;;;;;;;4995790;28;20378;-48
2023/06/18 01:58:58;;;;;;;11.60;9.50;;;;;;;;;;5003468;28;20416;-48
2023/06/18 02:01:26;;;;;;;10.23;8.33;;;;;;;;;;5003187;28;20489;-49
2023/06/18 02:03:52;;;;;;;13.40;9.03;;;;;;;;;;5000535;28;20455;-49
2023/06/18 02:06:18;;;;;;;10.03;9.03;;;;;;;;;;5002349;28;20780;-48
2023/06/18 02:08:44;;;;;;;10.90;8.77;;;;;;;;;;5000660;28;20455;-47
2023/06/18 02:11:10;;;;;;;10.63;8.93;;;;;;;;;;5001880;28;20406;-49
2023/06/18 02:13:36;;;;;;;15.03;9.03;;;;;;;;;;4998834;28;20422;-49
2023/06/18 02:16:02;;;;;;;11.80;8.43;;;;;;;;;;4999990;28;20486;-49
2023/06/18 02:18:28;;;;;;;9.20;8.30;;;;;;;;;;5004166;28;20418;-49
2023/06/18 02:23:58;;;;;;;9.47;8.57;;;;;;;;;;4997701;28;20489;-49
2023/06/18 02:26:24;;;;;;;9.27;8.20;;;;;;;;;;4998254;28;20804;-49
2023/06/18 02:28:50;;;;;;;11.07;9.97;;;;;;;;;;5011510;28;20472;-49
2023/06/18 02:31:15;;;;;;;14.83;10.07;;;;;;;;;;5006718;28;20421;-48
2023/06/18 02:33:41;;;;;;;13.97;9.87;;;;;;;;;;5004413;28;20753;-49
2023/06/18 02:36:09;;;;;;;12.03;9.23;;;;;;;;;;5007179;28;20385;-49
2023/06/18 02:38:35;;;;;;;19.30;9.27;;;;;;;;;;5005310;28;20397;-50
2023/06/18 02:41:02;;;;;;;12.37;9.47;;;;;;;;;;4999503;28;20411;-49
2023/06/18 02:43:30;;;;;;;10.17;8.57;;;;;;;;;;5005801;28;20466;-50
2023/06/18 02:45:56;;;;;;;10.70;9.13;;;;;;;;;;5004224;28;20436;-48
2023/06/18 02:48:22;;;;;;;9.00;8.17;;;;;;;;;;5004876;28;20466;-48
2023/06/18 02:50:48;;;;;;;8.43;7.50;;;;;;;;;;5002124;28;20414;-50
2023/06/18 02:53:14;;;;;;;9.70;8.73;;;;;;;;;;5003011;28;20396;-48
2023/06/18 02:55:43;;;;;;;10.30;8.77;;;;;;;;;;5003928;28;20439;-48
2023/06/18 02:58:27;;;;;;;9.13;8.33;;;;;;;;;;5001112;28;20428;-48
2023/06/18 03:00:54;;;;;;;8.87;7.73;;;;;;;;;;5008604;28;20771;-49
2023/06/18 03:03:21;;;;;;;10.67;8.60;;;;;;;;;;5004606;28;20396;-48
2023/06/18 03:05:47;;;;;;;8.60;7.80;;;;;;;;;;5000569;28;20413;-48
2023/06/18 03:08:14;;;;;;;11.00;8.60;;;;;;;;;;5002567;28;20441;-49
2023/06/18 03:10:41;;;;;;;9.30;8.50;;;;;;;;;;5002523;28;20411;-48
2023/06/18 03:13:07;;;;;;;14.00;9.00;;;;;;;;;;5005994;28;20388;-49
2023/06/18 03:15:33;;;;;;;9.57;8.57;;;;;;;;;;5004688;28;20411;-48
2023/06/18 03:17:59;;;;;;;13.07;8.70;;;;;;;;;;5006851;28;20400;-48
2023/06/18 03:20:25;;;;;;;10.87;8.93;;;;;;;;;;4998161;28;20477;-49
2023/06/18 03:22:51;;;;;;;9.80;8.90;;;;;;;;;;5004011;28;20448;-50
2023/06/18 03:25:17;;;;;;;15.30;9.10;;;;;;;;;;5005577;28;20453;-48
2023/06/18 03:27:43;;;;;;;10.93;9.47;;;;;;;;;;5003539;28;20457;-49
2023/06/18 03:30:09;;;;;;;10.90;9.80;;;;;;;;;;5005497;28;20401;-48
2023/06/18 03:32:35;;;;;;;12.53;9.37;;;;;;;;;;5002557;28;20946;-48
2023/06/18 03:35:04;;;;;;;12.03;8.90;;;;;;;;;;5004857;28;20492;-49
2023/06/18 03:37:33;;;;;;;10.40;8.80;;;;;;;;;;5002015;28;20422;-48
2023/06/18 03:39:59;;;;;;;9.27;8.37;;;;;;;;;;5001434;28;20955;-48
2023/06/18 03:42:25;;;;;;;9.57;8.57;;;;;;;;;;5006321;28;20878;-47
2023/06/18 03:44:51;;;;;;;9.80;8.80;;;;;;;;;;4996263;28;20512;-49
2023/06/18 03:47:18;;;;;;;15.30;8.93;;;;;;;;;;5003216;28;20890;-48
2023/06/18 03:49:44;;;;;;;9.80;8.80;;;;;;;;;;5002274;28;20386;-47
2023/06/18 03:52:10;;;;;;;11.47;9.37;;;;;;;;;;5002432;28;20874;-48
2023/06/18 03:54:38;;;;;;;14.10;9.83;;;;;;;;;;5001822;28;20403;-48
2023/06/18 03:57:04;;;;;;;9.90;8.90;;;;;;;;;;5007835;28;20412;-49
2023/06/18 03:59:30;;;;;;;12.47;9.80;;;;;;;;;;5004980;28;20970;-49
2023/06/18 04:01:56;;;;;;;11.77;9.27;;;;;;;;;;4999867;28;20450;-48
2023/06/18 04:04:22;;;;;;;13.87;10.80;;;;;;;;;;5000478;28;20795;-49
2023/06/18 04:06:48;;;;;;;13.20;9.60;;;;;;;;;;5002709;28;20418;-49
2023/06/18 04:09:14;;;;;;;10.80;9.23;;;;;;;;;;5004852;28;20925;-49
2023/06/18 04:11:42;;;;;;;12.73;9.13;;;;;;;;;;5002854;28;20400;-49
2023/06/18 04:14:08;;;;;;;12.63;8.90;;;;;;;;;;5001506;28;20404;-49
2023/06/18 04:16:34;;;;;;;11.73;8.30;;;;;;;;;;4999858;28;20896;-48
2023/06/18 04:19:01;;;;;;;9.90;8.60;;;;;;;;;;4997972;28;20526;-48
2023/06/18 04:21:27;;;;;;;9.83;8.47;;;;;;;;;;5004580;28;20396;-48
2023/06/18 04:23:53;;;;;;;9.63;8.63;;;;;;;;;;5002646;28;20442;-49
2023/06/18 04:26:19;;;;;;;15.27;9.10;;;;;;;;;;5003850;28;20829;-48
2023/06/18 04:28:45;;;;;;;9.30;8.40;;;;;;;;;;5002000;28;20459;-48
2023/06/18 04:31:11;;;;;;;17.43;8.90;;;;;;;;;;5003046;28;20384;-47
2023/06/18 04:33:37;;;;;;;9.87;8.50;;;;;;;;;;5002397;28;20441;-49
2023/06/18 04:36:03;;;;;;;9.60;8.70;;;;;;;;;;5001024;28;20439;-47
2023/06/18 04:38:29;;;;;;;11.40;9.23;;;;;;;;;;5005943;28;20510;-48
2023/06/18 04:40:55;;;;;;;12.07;9.03;;;;;;;;;;5000801;28;20955;-48
2023/06/18 04:43:21;;;;;;;10.77;8.00;;;;;;;;;;5001877;28;20754;-50
2023/06/18 04:45:47;;;;;;;10.43;8.90;;;;;;;;;;5000063;28;20452;-50
2023/06/18 04:48:14;;;;;;;17.87;10.63;;;;;;;;;;5001042;28;20531;-47
2023/06/18 04:50:40;;;;;;;12.40;8.60;;;;;;;;;;5000324;28;20426;-50
2023/06/18 04:53:06;;;;;;;9.33;8.40;;;;;;;;;;5006974;28;20419;-48
2023/06/18 04:55:32;;;;;;;11.00;9.60;;;;;;;;;;5004527;28;20409;-50
2023/06/18 04:57:58;;;;;;;10.10;8.37;;;;;;;;;;4999049;28;20962;-50
2023/06/18 05:00:24;;;;;;;10.90;8.07;;;;;;;;;;4999323;28;20474;-49
2023/06/18 05:02:50;;;;;;;16.23;9.40;;;;;;;;;;5002131;28;20386;-47
2023/06/18 05:05:16;;;;;;;13.67;9.67;;;;;;;;;;5004103;28;20843;-49
2023/06/18 05:07:42;;;;;;;13.57;10.27;;;;;;;;;;5002290;28;20441;-48
2023/06/18 05:10:09;;;;;;;14.37;10.10;;;;;;;;;;5004665;28;20392;-47
2023/06/18 05:12:35;;;;;;;11.70;9.23;;;;;;;;;;5003305;28;20394;-47
2023/06/18 05:15:01;;;;;;;12.47;9.93;;;;;;;;;;4996585;28;20446;-49
2023/06/18 05:17:27;;;;;;;14.60;9.53;;;;;;;;;;5003735;28;20926;-50
2023/06/18 05:19:53;;;;;;;10.27;9.17;;;;;;;;;;4995616;28;20419;-48
2023/06/18 05:22:19;;;;;;;13.80;9.10;;;;;;;;;;5003437;28;20396;-48
2023/06/18 05:24:45;;;;;;;11.67;9.70;;;;;;;;;;5001031;28;20430;-48
2023/06/18 05:27:12;;;;;;;10.13;9.13;;;;;;;;;;5002654;28;20535;-47
2023/06/18 05:29:38;;;;;;;9.67;8.47;;;;;;;;;;5001747;28;20455;-47
2023/06/18 05:32:04;;;;;;;12.90;9.83;;;;;;;;;;4996373;28;20775;-47
2023/06/18 05:34:30;;;;;;;11.23;9.30;;;;;;;;;;5003512;28;20406;-47
2023/06/18 05:36:56;;;;;;;11.70;8.60;;;;;;;;;;5000169;28;20904;-49
2023/06/18 05:39:22;;;;;;;8.87;7.90;;;;;;;;;;5000885;28;20414;-49
2023/06/18 05:41:50;;;;;;;10.83;8.90;;;;;;;;;;5000194;28;20414;-48
2023/06/18 05:44:16;;;;;;;11.27;9.70;;;;;;;;;;5000101;28;20478;-49
2023/06/18 05:46:42;;;;;;;13.53;8.90;;;;;;;;;;4996737;28;20523;-48
2023/06/18 05:49:09;;;;;;;9.03;8.13;;;;;;;;;;5006246;28;20773;-49
2023/06/18 05:51:35;;;;;;;10.07;9.03;;;;;;;;;;5004672;28;20409;-48
2023/06/18 05:54:02;;;;;;;10.40;8.33;;;;;;;;;;4998610;28;20516;-48
2023/06/18 05:56:28;;;;;;;9.70;8.03;;;;;;;;;;4998566;28;20794;-48
2023/06/18 05:58:55;;;;;;;10.77;8.80;;;;;;;;;;4987220;28;20440;-48
2023/06/18 06:01:21;;;;;;;10.37;8.10;;;;;;;;;;4997311;28;20426;-50
2023/06/18 06:03:47;;;;;;;13.40;8.03;;;;;;;;;;5006096;28;20767;-51
2023/06/18 06:06:13;;;;;;;11.10;8.43;;;;;;;;;;5007068;28;20417;-52
2023/06/18 06:08:39;;;;;;;8.20;7.37;;;;;;;;;;5001812;28;20471;-49
2023/06/18 06:11:05;;;;;;;8.43;7.57;;;;;;;;;;5003230;28;20409;-49
2023/06/18 06:13:31;;;;;;;8.60;7.60;;;;;;;;;;5004173;28;20906;-49
2023/06/18 06:15:57;;;;;;;10.27;7.90;;;;;;;;;;4997846;28;20439;-47
2023/06/18 06:18:23;;;;;;;8.63;7.80;;;;;;;;;;5007572;28;20469;-48
2023/06/18 06:20:48;;;;;;;7.93;7.23;;;;;;;;;;5006968;28;20552;-48
2023/06/18 06:23:14;;;;;;;9.17;8.27;;;;;;;;;;5001952;28;20411;-50
2023/06/18 06:25:40;;;;;;;7.40;6.73;;;;;;;;;;4998981;28;20554;-51
2023/06/18 06:28:06;;;;;;;8.70;7.63;;;;;;;;;;5002087;28;20467;-50
2023/06/18 06:30:32;;;;;;;10.60;8.10;;;;;;;;;;5001963;28;20408;-50
2023/06/18 06:32:58;;;;;;;10.63;8.03;;;;;;;;;;5005436;28;20413;-50
2023/06/18 06:35:24;;;;;;;9.10;8.20;;;;;;;;;;5005518;28;20439;-48
2023/06/18 06:37:51;;;;;;;9.23;7.33;;;;;;;;;;5006507;28;20414;-48
2023/06/18 06:40:17;;;;;;;10.20;7.90;;;;;;;;;;5002356;28;20415;-51
2023/06/18 06:42:43;;;;;;;10.67;8.40;;;;;;;;;;4996768;28;20420;-48
2023/06/18 06:45:09;;;;;;;9.73;7.70;;;;;;;;;;5006031;28;20518;-49
2023/06/18 06:47:35;;;;;;;9.20;8.30;;;;;;;;;;5004011;28;20457;-48
2023/06/18 06:50:01;;;;;;;12.00;8.97;;;;;;;;;;5005829;28;20399;-50
2023/06/18 06:52:27;;;;;;;11.63;8.63;;;;;;;;;;5009865;28;20419;-48
2023/06/18 06:54:53;;;;;;;10.47;9.00;;;;;;;;;;5003998;28;20509;-50
2023/06/18 06:57:19;;;;;;;8.93;8.03;;;;;;;;;;5000728;28;20414;-48
2023/06/18 06:59:45;;;;;;;12.03;8.80;;;;;;;;;;5005017;28;20886;-49
2023/06/18 07:02:11;;;;;;;8.80;7.90;;;;;;;;;;5004363;28;20415;-49
2023/06/18 07:04:37;;;;;;;9.23;8.33;;;;;;;;;;5001793;28;20444;-50
2023/06/18 07:07:03;;;;;;;8.77;7.80;;;;;;;;;;5010240;28;20515;-51
2023/06/18 07:09:29;;;;;;;9.13;8.10;;;;;;;;;;5002318;28;20408;-51
2023/06/18 07:11:55;;;;;;;9.83;8.67;;;;;;;;;;5003004;28;20417;-50
2023/06/18 07:14:21;;;;;;;8.70;7.80;;;;;;;;;;5001971;28;20533;-48
2023/06/18 07:16:47;;;;;;;10.43;8.83;;;;;;;;;;5004552;28;20414;-49
2023/06/18 07:19:15;;;;;;;9.50;8.10;;;;;;;;;;5002635;28;20442;-48
2023/06/18 07:21:41;;;;;;;9.67;8.50;;;;;;;;;;4999892;28;20943;-50
2023/06/18 07:24:07;;;;;;;8.30;7.50;;;;;;;;;;4994055;28;20468;-50
2023/06/18 07:26:33;;;;;;;8.00;7.33;;;;;;;;;;4990053;28;20514;-49
2023/06/18 07:28:59;;;;;;;10.00;7.53;;;;;;;;;;4987734;28;20477;-51
2023/06/18 07:31:25;;;;;;;9.10;8.10;;;;;;;;;;5004055;28;20428;-48
2023/06/18 07:33:50;;;;;;;11.40;7.60;;;;;;;;;;5003658;28;20420;-48
2023/06/18 07:36:16;;;;;;;10.43;7.83;;;;;;;;;;5003303;28;20437;-54
2023/06/18 07:38:42;;;;;;;8.77;7.67;;;;;;;;;;5001860;28;20431;-49
2023/06/18 07:41:08;;;;;;;9.47;8.00;;;;;;;;;;5002656;28;20450;-49
2023/06/18 07:43:34;;;;;;;10.60;7.87;;;;;;;;;;5001563;28;20981;-51
2023/06/18 07:46:00;;;;;;;8.60;7.80;;;;;;;;;;4990162;28;20538;-49
2023/06/18 07:48:26;;;;;;;11.50;7.70;;;;;;;;;;4998893;28;20465;-49
2023/06/18 07:50:52;;;;;;;10.83;7.90;;;;;;;;;;4999771;28;20415;-52
2023/06/18 07:53:18;;;;;;;9.00;8.10;;;;;;;;;;5001160;28;20498;-49
2023/06/18 07:55:44;;;;;;;8.30;7.50;;;;;;;;;;5002267;28;20476;-48
2023/06/18 07:58:10;;;;;;;7.87;7.10;;;;;;;;;;5005002;28;20399;-49
2023/06/18 08:00:36;;;;;;;9.77;8.40;;;;;;;;;;5003483;28;20772;-48
2023/06/18 08:03:02;;;;;;;9.57;8.17;;;;;;;;;;5006276;28;20776;-48
2023/06/18 08:05:28;;;;;;;10.23;7.50;;;;;;;;;;4992002;28;20463;-48
2023/06/18 08:07:54;;;;;;;7.27;6.67;;;;;;;;;;4985384;28;20481;-49
2023/06/18 08:10:20;;;;;;;7.87;7.17;;;;;;;;;;4990031;28;20430;-50
2023/06/18 08:12:46;;;;;;;7.97;7.17;;;;;;;;;;4991194;28;20482;-52
2023/06/18 08:15:12;;;;;;;9.90;7.73;;;;;;;;;;4989474;28;20472;-51
2023/06/18 08:17:38;;;;;;;7.93;7.33;;;;;;;;;;4994815;28;20980;-48
2023/06/18 08:20:04;;;;;;;8.47;7.77;;;;;;;;;;5004152;28;20411;-54
2023/06/18 08:22:30;;;;;;;7.70;7.00;;;;;;;;;;4991240;28;20420;-49
2023/06/18 08:24:56;;;;;;;7.80;7.10;;;;;;;;;;4990508;28;21001;-48
2023/06/18 08:27:22;;;;;;;7.23;6.63;;;;;;;;;;4992537;28;20478;-49
2023/06/18 08:29:48;;;;;;;8.03;7.33;;;;;;;;;;5001971;28;20499;-48
2023/06/18 08:32:14;;;;;;;7.40;6.60;;;;;;;;;;5001559;28;20416;-48
2023/06/18 08:34:45;;;;;;;7.90;6.83;;;;;;;;;;5001095;28;20431;-50
2023/06/18 08:37:11;;;;;;;7.60;6.90;;;;;;;;;;5000871;28;20408;-49
2023/06/18 08:39:37;;;;;;;7.87;7.10;;;;;;;;;;5005697;28;20771;-48
2023/06/18 08:42:03;;;;;;;7.27;6.67;;;;;;;;;;4999569;28;20418;-49
2023/06/18 08:44:30;;;;;;;6.80;6.20;;;;;;;;;;4997341;28;20459;-49
2023/06/18 08:47:03;;;;;;;6.90;6.40;;;;;;;;;;5001022;28;20431;-49
2023/06/18 08:49:29;;;;;;;7.50;6.90;;;;;;;;;;5000642;28;20412;-50
2023/06/18 08:51:57;;;;;;;7.73;7.03;;;;;;;;;;5001913;28;20415;-50
2023/06/18 08:54:24;;;;;;;7.60;6.80;;;;;;;;;;5003230;28;20960;-48
2023/06/18 08:56:54;;;;;;;8.63;6.23;;;;;;;;;;5004029;28;20473;-49
2023/06/18 08:59:21;;;;;;;6.70;6.20;;;;;;;;;;4999964;28;20403;-51
2023/06/18 09:01:47;;;;;;;6.60;6.10;;;;;;;;;;4996098;28;20407;-49
2023/06/18 09:04:13;;;;;;;6.80;6.17;;;;;;;;;;5003787;28;20481;-49
2023/06/18 09:06:40;;;;;;;7.90;6.77;;;;;;;;;;5000962;28;20412;-52
2023/06/18 09:09:06;;;;;;;6.40;5.53;;;;;;;;;;5003669;28;20455;-56
2023/06/18 09:11:33;;;;;;;6.60;6.00;;;;;;;;;;4996218;28;20411;-49
2023/06/18 09:13:59;;;;;;;6.43;5.83;;;;;;;;;;5001346;28;20433;-51
2023/06/18 09:16:26;;;;;;;7.70;7.00;;;;;;;;;;4998825;28;20414;-51
2023/06/18 09:18:52;;;;;;;6.47;5.97;;;;;;;;;;5001950;28;20415;-49
2023/06/18 09:21:36;;;;;;;6.30;5.70;;;;;;;;;;5002589;28;20415;-50
2023/06/18 09:24:03;;;;;;;6.03;5.53;;;;;;;;;;4999091;28;20446;-51
2023/06/18 09:26:33;;;;;;;5.63;5.23;;;;;;;;;;4998977;28;20412;-49
2023/06/18 09:29:01;;;;;;;6.30;5.80;;;;;;;;;;5000573;28;20634;-49
2023/06/18 09:31:27;;;;;;;6.47;5.33;;;;;;;;;;5000134;28;20435;-51
2023/06/18 09:33:53;;;;;;;5.70;5.20;;;;;;;;;;5002115;28;20948;-50
2023/06/18 09:36:19;;;;;;;6.43;5.83;;;;;;;;;;5004074;28;20411;-50
2023/06/18 09:38:45;;;;;;;5.70;5.27;;;;;;;;;;5008184;28;20422;-49
2023/06/18 09:41:12;;;;;;;5.30;4.80;;;;;;;;;;5002405;28;20407;-50
2023/06/18 09:43:40;;;;;;;5.60;5.20;;;;;;;;;;4998772;28;20435;-52
2023/06/18 09:46:07;;;;;;;4.83;4.43;;;;;;;;;;4998921;28;20501;-50
2023/06/18 09:48:37;;;;;;;5.20;4.80;;;;;;;;;;5005582;28;20480;-52
2023/06/18 09:51:03;;;;;;;5.47;4.90;;;;;;;;;;5007108;28;20898;-50
2023/06/18 09:53:29;;;;;;;5.90;5.50;;;;;;;;;;5004352;28;20416;-52
2023/06/18 09:56:07;;;;;;;5.60;5.20;;;;;;;;;;5005918;28;20427;-52
2023/06/18 09:58:39;;;;;;;5.50;5.10;;;;;;;;;;5008674;28;20450;-51
2023/06/18 10:01:05;;;;;;;6.27;5.77;;;;;;;;;;4996911;28;20419;-53
2023/06/18 10:03:31;;;;;;;5.63;5.00;;;;;;;;;;5008253;28;20749;-50
2023/06/18 10:06:00;;;;;;;5.80;5.30;;;;;;;;;;5002643;28;20502;-50
2023/06/18 10:08:27;;;;;;;7.40;5.07;;;;;;;;;;5002805;28;20459;-50
2023/06/18 10:10:53;;;;;;;6.00;5.40;;;;;;;;;;4996113;28;20414;-50
2023/06/18 10:13:19;;;;;;;5.90;5.30;;;;;;;;;;4995697;28;20770;-50
2023/06/18 10:15:46;;;;;;;5.50;5.10;;;;;;;;;;4993540;28;20967;-50
2023/06/18 10:18:14;;;;;;;5.60;4.93;;;;;;;;;;4995440;28;20427;-50
2023/06/18 10:20:41;;;;;;;5.90;5.23;;;;;;;;;;4995259;28;20969;-50
2023/06/18 10:23:07;;;;;;;6.00;5.50;;;;;;;;;;4997871;28;20937;-52
2023/06/18 10:25:36;;;;;;;5.90;5.50;;;;;;;;;;4999728;28;20457;-52
2023/06/18 10:28:03;;;;;;;5.27;4.87;;;;;;;;;;5006473;28;20469;-50
2023/06/18 10:30:28;;;;;;;5.40;4.90;;;;;;;;;;5005347;28;20435;-50
2023/06/18 10:32:55;;;;;;;6.27;5.70;;;;;;;;;;5005316;28;20987;-50
2023/06/18 10:35:21;;;;;;;6.13;5.63;;;;;;;;;;5005081;28;20494;-50
2023/06/18 10:37:47;;;;;;;6.63;6.00;;;;;;;;;;5005322;28;20415;-50
2023/06/18 10:40:13;;;;;;;6.63;5.40;;;;;;;;;;5000051;28;20704;-50
2023/06/18 10:42:39;;;;;;;5.20;4.70;;;;;;;;;;5006375;28;20422;-53
2023/06/18 10:45:12;;;;;;;5.57;5.17;;;;;;;;;;4999329;28;20481;-50
2023/06/18 10:47:39;;;;;;;5.83;5.43;;;;;;;;;;4993186;28;20471;-50
2023/06/18 10:50:08;;;;;;;5.80;4.60;;;;;;;;;;4994242;28;20415;-52
2023/06/18 10:52:35;;;;;;;5.40;4.90;;;;;;;;;;5002699;28;20443;-50
2023/06/18 10:55:08;;;;;;;5.33;4.90;;;;;;;;;;5010767;28;20478;-50
2023/06/18 10:57:38;;;;;;;5.43;4.93;;;;;;;;;;5002366;28;20416;-51
2023/06/18 11:00:15;;;;;;;5.20;4.80;;;;;;;;;;5000084;28;20780;-50
2023/06/18 11:02:41;;;;;;;8.37;4.97;;;;;;;;;;5003570;28;20518;-50
2023/06/18 11:05:07;;;;;;;5.40;4.90;;;;;;;;;;5002418;28;20467;-50
2023/06/18 11:07:33;;;;;;;5.70;5.30;;;;;;;;;;5007582;28;20553;-51
2023/06/18 11:10:01;;;;;;;5.47;4.97;;;;;;;;;;5001755;28;20415;-51
2023/06/18 11:12:31;;;;;;;6.37;5.20;;;;;;;;;;5002085;28;20408;-52
2023/06/18 11:15:17;;;;;;;5.07;4.67;;;;;;;;;;5007355;28;20461;-50
2023/06/18 11:17:44;;;;;;;5.50;5.07;;;;;;;;;;5001662;28;20411;-50
2023/06/18 11:20:11;;;;;;;6.60;5.10;;;;;;;;;;4994226;28;20471;-51
2023/06/18 11:22:38;;;;;;;7.70;4.90;;;;;;;;;;4994304;28;20419;-51
2023/06/18 11:25:05;;;;;;;4.60;4.30;;;;;;;;;;4993914;28;20448;-52
2023/06/18 11:27:31;;;;;;;5.60;5.20;;;;;;;;;;4994122;28;20463;-50
2023/06/18 11:29:57;;;;;;;5.60;5.10;;;;;;;;;;4993724;28;20408;-50
2023/06/18 11:32:24;;;;;;;7.67;4.90;;;;;;;;;;4994871;28;20416;-50
2023/06/18 11:34:50;;;;;;;7.67;5.53;;;;;;;;;;4993882;28;20439;-50
2023/06/18 11:37:16;;;;;;;6.90;5.10;;;;;;;;;;4994248;28;20404;-51
2023/06/18 11:39:43;;;;;;;8.20;4.93;;;;;;;;;;4993816;28;20419;-51
2023/06/18 11:42:12;;;;;;;5.43;5.03;;;;;;;;;;4999796;28;20411;-51
2023/06/18 11:45:01;;;;;;;8.70;4.90;;;;;;;;;;4996107;28;20514;-51
2023/06/18 11:47:27;;;;;;;5.30;4.80;;;;;;;;;;4993676;28;20518;-51
2023/06/18 11:49:54;;;;;;;5.33;4.93;;;;;;;;;;4987358;28;20470;-51
2023/06/18 11:52:24;;;;;;;5.50;5.00;;;;;;;;;;4989813;28;20180;-51
2023/06/18 11:54:50;;;;;;;6.10;4.80;;;;;;;;;;4993051;28;20479;-53
2023/06/18 11:57:17;;;;;;;4.70;4.30;;;;;;;;;;4999594;28;20415;-51
2023/06/18 11:59:44;;;;;;;5.40;5.00;;;;;;;;;;5001316;28;20851;-50
2023/06/18 12:02:18;;;;;;;9.23;5.40;;;;;;;;;;5002812;28;20554;-51
2023/06/18 12:04:45;;;;;;;4.70;4.30;;;;;;;;;;5002103;28;20434;-51
2023/06/18 12:07:15;;;;;;;8.90;5.10;;;;;;;;;;5001510;28;20975;-51
2023/06/18 12:09:41;;;;;;;5.60;5.10;;;;;;;;;;5006698;28;20411;-51
2023/06/18 12:12:13;;;;;;;4.80;4.50;;;;;;;;;;5001149;28;20499;-52
2023/06/18 12:14:52;;;;;;;5.70;5.10;;;;;;;;;;4997857;28;20207;-50
2023/06/18 12:17:24;;;;;;;5.40;5.00;;;;;;;;;;4990890;28;20446;-51
2023/06/18 12:19:55;;;;;;;5.57;5.07;;;;;;;;;;5002402;28;20419;-52
2023/06/18 12:22:21;;;;;;;5.80;5.20;;;;;;;;;;5004847;28;20403;-52
2023/06/18 12:24:47;;;;;;;5.80;4.97;;;;;;;;;;5002093;28;20459;-50
2023/06/18 12:27:14;;;;;;;5.47;5.07;;;;;;;;;;5004021;28;20416;-51
2023/06/18 12:29:41;;;;;;;5.50;5.00;;;;;;;;;;5003313;28;20438;-53
2023/06/18 12:32:08;;;;;;;5.30;4.90;;;;;;;;;;4998039;28;20407;-50
2023/06/18 12:34:38;;;;;;;5.90;5.30;;;;;;;;;;5004180;28;20442;-50
2023/06/18 12:37:04;;;;;;;5.40;5.00;;;;;;;;;;5001894;28;20435;-50
2023/06/18 12:39:30;;;;;;;6.20;5.20;;;;;;;;;;5001382;28;20669;-51
2023/06/18 12:41:57;;;;;;;7.10;4.70;;;;;;;;;;5003144;28;20404;-51
2023/06/18 12:44:24;;;;;;;6.20;5.60;;;;;;;;;;5000964;28;20432;-51
2023/06/18 12:46:52;;;;;;;4.83;4.43;;;;;;;;;;4994004;28;20442;-50
2023/06/18 12:49:18;;;;;;;6.17;5.60;;;;;;;;;;5006040;28;20474;-52
2023/06/18 12:51:44;;;;;;;6.17;5.67;;;;;;;;;;5006468;28;20419;-51
2023/06/18 12:54:18;;;;;;;5.30;4.90;;;;;;;;;;5000975;28;20943;-52
2023/06/18 12:56:48;;;;;;;9.77;5.33;;;;;;;;;;4998417;28;20412;-51
2023/06/18 12:59:16;;;;;;;5.57;5.13;;;;;;;;;;5007201;28;20900;-50
2023/06/18 13:01:42;;;;;;;6.07;5.57;;;;;;;;;;5000928;28;20404;-51
2023/06/18 13:04:09;;;;;;;5.00;4.50;;;;;;;;;;5003990;28;20423;-52
2023/06/18 13:06:35;;;;;;;5.83;5.30;;;;;;;;;;5002142;28;20475;-50
2023/06/18 13:09:02;;;;;;;6.30;5.70;;;;;;;;;;4994092;28;20857;-51
2023/06/18 13:11:28;;;;;;;7.53;5.03;;;;;;;;;;5005773;28;20907;-51
2023/06/18 13:13:54;;;;;;;8.73;4.60;;;;;;;;;;4996431;28;20426;-51
2023/06/18 13:16:20;;;;;;;6.30;4.80;;;;;;;;;;5002572;28;20179;-51
2023/06/18 13:18:46;;;;;;;5.00;4.60;;;;;;;;;;4999676;28;20458;-51
2023/06/18 13:21:12;;;;;;;5.67;4.73;;;;;;;;;;4991842;28;20931;-52
2023/06/18 13:23:38;;;;;;;5.43;5.00;;;;;;;;;;4992200;28;20796;-50
2023/06/18 13:26:04;;;;;;;5.67;5.20;;;;;;;;;;4991661;28;20227;-51
2023/06/18 13:28:30;;;;;;;6.40;5.90;;;;;;;;;;4990664;28;20205;-51
2023/06/18 13:30:58;;;;;;;5.80;5.30;;;;;;;;;;4991477;28;20412;-50
2023/06/18 13:33:24;;;;;;;5.87;5.27;;;;;;;;;;4992221;28;20655;-51
2023/06/18 13:35:50;;;;;;;5.93;5.53;;;;;;;;;;5000721;28;20436;-51
2023/06/18 13:38:16;;;;;;;6.00;5.50;;;;;;;;;;5001301;28;20411;-51
2023/06/18 13:40:42;;;;;;;6.03;5.53;;;;;;;;;;5000198;28;20177;-51
2023/06/18 13:43:11;;;;;;;6.37;5.77;;;;;;;;;;5000770;28;20412;-50
2023/06/18 13:45:38;;;;;;;5.83;5.43;;;;;;;;;;4996813;28;20451;-50
2023/06/18 13:48:04;;;;;;;5.37;4.97;;;;;;;;;;4998368;28;20466;-52
2023/06/18 13:50:30;;;;;;;6.27;5.33;;;;;;;;;;5001723;28;20911;-52
2023/06/18 13:52:56;;;;;;;5.57;5.07;;;;;;;;;;4997706;28;20482;-50
2023/06/18 13:55:22;;;;;;;6.87;5.73;;;;;;;;;;4998406;28;20542;-51
2023/06/18 13:57:48;;;;;;;5.80;5.30;;;;;;;;;;4999234;28;20408;-50
2023/06/18 14:00:15;;;;;;;5.87;5.40;;;;;;;;;;5003242;28;20486;-50
2023/06/18 14:02:41;;;;;;;6.73;6.13;;;;;;;;;;5001263;28;20424;-50
2023/06/18 14:05:07;;;;;;;5.90;5.30;;;;;;;;;;5004061;28;20443;-50
2023/06/18 14:07:33;;;;;;;6.40;5.80;;;;;;;;;;5001992;28;20466;-52
2023/06/18 14:10:00;;;;;;;6.10;5.60;;;;;;;;;;4996185;28;20683;-50
2023/06/18 14:12:26;;;;;;;11.53;5.83;;;;;;;;;;5003252;28;20926;-52
2023/06/18 14:14:52;;;;;;;7.17;5.83;;;;;;;;;;5001035;28;20455;-53
2023/06/18 14:17:18;;;;;;;6.40;5.90;;;;;;;;;;4998372;28;20493;-50
2023/06/18 14:19:44;;;;;;;6.33;5.83;;;;;;;;;;5000286;28;20404;-49
2023/06/18 14:22:11;;;;;;;6.20;5.60;;;;;;;;;;5001916;28;20415;-50
2023/06/18 14:49:23;;;;;;;8.87;6.50;;;;;;;;;;5096201;27;20611;-50
2023/06/18 14:51:49;;;;;;;6.63;6.03;;;;;;;;;;5085526;28;20404;-51
2023/06/18 14:54:16;;;;;;;6.17;5.67;;;;;;;;;;5073534;28;20416;-52
2023/06/18 14:56:43;;;;;;;6.60;6.10;;;;;;;;;;5075153;28;20397;-52
2023/06/18 14:59:09;;;;;;;6.77;6.17;;;;;;;;;;5078437;28;20988;-51
2023/06/18 15:01:36;;;;;;;7.57;6.93;;;;;;;;;;5076935;28;20492;-52
2023/06/18 15:04:05;;;;;;;9.80;6.90;;;;;;;;;;5068598;28;20403;-51